sensor_id;sensor_type;location;lat;lon;timestamp;temperature;humidity
58638;DHT22;54976;51.510;7.522;2023-04-28T00:01:51;9.90;58.20
58638;DHT22;54976;51.510;7.522;2023-04-28T00:04:51;10.00;57.40
58638;DHT22;54976;51.510;7.522;2023-04-28T00:07:52;10.00;57.70
58638;DHT22;54976;51.510;7.522;2023-04-28T00:10:53;10.00;57.70
58638;DHT22;54976;51.510;7.522;2023-04-28T00:13:53;10.00;57.90
58638;DHT22;54976;51.510;7.522;2023-04-28T00:16:55;10.10;57.90
58638;DHT22;54976;51.510;7.522;2023-04-28T00:19:57;10.10;58.30
58638;DHT22;54976;51.510;7.522;2023-04-28T00:22:58;10.10;59.00
58638;DHT22;54976;51.510;7.522;2023-04-28T00:25:58;10.10;59.50
58638;DHT22;54976;51.510;7.522;2023-04-28T00:28:59;10.10;60.30
58638;DHT22;54976;51.510;7.522;2023-04-28T00:32:00;10.00;60.30
58638;DHT22;54976;51.510;7.522;2023-04-28T00:35:00;10.00;60.80
58638;DHT22;54976;51.510;7.522;2023-04-28T00:38:01;10.00;61.40
58638;DHT22;54976;51.510;7.522;2023-04-28T00:41:02;10.00;61.50
58638;DHT22;54976;51.510;7.522;2023-04-28T00:44:02;10.00;63.40
58638;DHT22;54976;51.510;7.522;2023-04-28T00:47:03;9.90;67.30
58638;DHT22;54976;51.510;7.522;2023-04-28T00:50:05;9.70;66.90
58638;DHT22;54976;51.510;7.522;2023-04-28T00:53:06;9.70;68.50
58638;DHT22;54976;51.510;7.522;2023-04-28T00:56:07;9.60;68.80
58638;DHT22;54976;51.510;7.522;2023-04-28T00:59:08;9.60;70.60
58638;DHT22;54976;51.510;7.522;2023-04-28T01:02:09;9.70;70.40
58638;DHT22;54976;51.510;7.522;2023-04-28T01:05:16;10.00;70.40
58638;DHT22;54976;51.510;7.522;2023-04-28T01:08:22;9.80;72.40
58638;DHT22;54976;51.510;7.522;2023-04-28T01:11:23;9.80;73.10
58638;DHT22;54976;51.510;7.522;2023-04-28T01:14:24;9.80;77.10
58638;DHT22;54976;51.510;7.522;2023-04-28T01:17:24;9.90;79.20
58638;DHT22;54976;51.510;7.522;2023-04-28T01:20:25;9.80;81.10
58638;DHT22;54976;51.510;7.522;2023-04-28T01:23:26;9.60;88.00
58638;DHT22;54976;51.510;7.522;2023-04-28T01:26:26;9.50;90.10
58638;DHT22;54976;51.510;7.522;2023-04-28T01:29:27;9.50;91.10
58638;DHT22;54976;51.510;7.522;2023-04-28T01:32:27;9.40;92.00
58638;DHT22;54976;51.510;7.522;2023-04-28T01:35:29;9.40;93.30
58638;DHT22;54976;51.510;7.522;2023-04-28T01:38:29;9.30;94.40
58638;DHT22;54976;51.510;7.522;2023-04-28T01:41:30;9.40;95.00
58638;DHT22;54976;51.510;7.522;2023-04-28T01:44:30;9.50;94.90
58638;DHT22;54976;51.510;7.522;2023-04-28T01:47:31;9.50;94.90
58638;DHT22;54976;51.510;7.522;2023-04-28T01:50:32;9.30;96.20
58638;DHT22;54976;51.510;7.522;2023-04-28T01:53:32;9.30;96.90
58638;DHT22;54976;51.510;7.522;2023-04-28T01:56:33;9.30;97.50
58638;DHT22;54976;51.510;7.522;2023-04-28T01:59:34;9.30;98.10
58638;DHT22;54976;51.510;7.522;2023-04-28T02:02:34;9.20;97.90
58638;DHT22;54976;51.510;7.522;2023-04-28T02:05:36;9.30;97.80
58638;DHT22;54976;51.510;7.522;2023-04-28T02:08:36;9.00;99.00
58638;DHT22;54976;51.510;7.522;2023-04-28T02:11:37;9.10;99.90
58638;DHT22;54976;51.510;7.522;2023-04-28T02:14:37;9.00;99.90
58638;DHT22;54976;51.510;7.522;2023-04-28T02:17:39;9.10;99.90
58638;DHT22;54976;51.510;7.522;2023-04-28T02:20:41;9.10;99.90
58638;DHT22;54976;51.510;7.522;2023-04-28T02:23:41;9.20;99.90
58638;DHT22;54976;51.510;7.522;2023-04-28T02:26:42;9.30;99.90
58638;DHT22;54976;51.510;7.522;2023-04-28T02:29:42;9.30;99.90
58638;DHT22;54976;51.510;7.522;2023-04-28T02:32:43;9.40;99.90
58638;DHT22;54976;51.510;7.522;2023-04-28T02:35:44;9.60;99.90
58638;DHT22;54976;51.510;7.522;2023-04-28T02:38:44;9.50;99.90
58638;DHT22;54976;51.510;7.522;2023-04-28T02:41:45;9.60;99.90
58638;DHT22;54976;51.510;7.522;2023-04-28T02:44:45;9.60;99.90
58638;DHT22;54976;51.510;7.522;2023-04-28T02:47:46;9.60;99.90
58638;DHT22;54976;51.510;7.522;2023-04-28T02:50:47;9.80;99.90
58638;DHT22;54976;51.510;7.522;2023-04-28T02:53:47;9.80;99.90
58638;DHT22;54976;51.510;7.522;2023-04-28T02:56:48;9.80;99.90
58638;DHT22;54976;51.510;7.522;2023-04-28T02:59:49;10.10;99.90
58638;DHT22;54976;51.510;7.522;2023-04-28T03:02:49;9.90;99.90
58638;DHT22;54976;51.510;7.522;2023-04-28T03:05:50;10.10;99.90
58638;DHT22;54976;51.510;7.522;2023-04-28T03:08:50;9.90;99.90
58638;DHT22;54976;51.510;7.522;2023-04-28T03:11:51;10.00;99.90
58638;DHT22;54976;51.510;7.522;2023-04-28T03:14:52;10.00;99.90
58638;DHT22;54976;51.510;7.522;2023-04-28T03:17:52;10.20;99.90
58638;DHT22;54976;51.510;7.522;2023-04-28T03:20:53;10.00;99.90
58638;DHT22;54976;51.510;7.522;2023-04-28T03:23:53;10.00;99.90
58638;DHT22;54976;51.510;7.522;2023-04-28T03:26:54;10.00;99.90
58638;DHT22;54976;51.510;7.522;2023-04-28T03:29:55;10.00;99.90
58638;DHT22;54976;51.510;7.522;2023-04-28T03:32:55;10.20;99.90
58638;DHT22;54976;51.510;7.522;2023-04-28T03:35:56;10.00;99.90
58638;DHT22;54976;51.510;7.522;2023-04-28T03:38:56;10.00;99.90
58638;DHT22;54976;51.510;7.522;2023-04-28T03:41:57;10.00;99.90
58638;DHT22;54976;51.510;7.522;2023-04-28T03:44:57;9.90;99.90
58638;DHT22;54976;51.510;7.522;2023-04-28T03:47:58;9.90;99.90
58638;DHT22;54976;51.510;7.522;2023-04-28T03:50:59;10.00;99.90
58638;DHT22;54976;51.510;7.522;2023-04-28T03:53:59;9.90;99.90
58638;DHT22;54976;51.510;7.522;2023-04-28T03:57:00;10.00;99.90
58638;DHT22;54976;51.510;7.522;2023-04-28T04:00:01;9.90;99.90
58638;DHT22;54976;51.510;7.522;2023-04-28T04:03:01;9.80;99.90
58638;DHT22;54976;51.510;7.522;2023-04-28T04:06:02;9.80;99.90
58638;DHT22;54976;51.510;7.522;2023-04-28T04:09:03;9.90;99.90
58638;DHT22;54976;51.510;7.522;2023-04-28T04:12:04;9.90;99.90
58638;DHT22;54976;51.510;7.522;2023-04-28T04:15:06;9.80;99.90
58638;DHT22;54976;51.510;7.522;2023-04-28T04:18:07;9.90;99.90
58638;DHT22;54976;51.510;7.522;2023-04-28T04:21:07;9.80;99.90
58638;DHT22;54976;51.510;7.522;2023-04-28T04:24:08;10.00;99.90
58638;DHT22;54976;51.510;7.522;2023-04-28T04:27:08;9.90;99.90
58638;DHT22;54976;51.510;7.522;2023-04-28T04:30:10;10.00;99.90
58638;DHT22;54976;51.510;7.522;2023-04-28T04:33:11;9.90;99.90
58638;DHT22;54976;51.510;7.522;2023-04-28T04:36:11;9.90;99.90
58638;DHT22;54976;51.510;7.522;2023-04-28T04:39:12;9.90;99.90
58638;DHT22;54976;51.510;7.522;2023-04-28T04:42:13;9.90;99.90
58638;DHT22;54976;51.510;7.522;2023-04-28T04:45:13;9.90;99.90
58638;DHT22;54976;51.510;7.522;2023-04-28T04:48:14;10.10;99.90
58638;DHT22;54976;51.510;7.522;2023-04-28T04:51:15;10.00;99.90
58638;DHT22;54976;51.510;7.522;2023-04-28T04:54:15;10.00;99.90
58638;DHT22;54976;51.510;7.522;2023-04-28T04:57:16;10.00;99.90
58638;DHT22;54976;51.510;7.522;2023-04-28T05:00:17;10.00;99.90
58638;DHT22;54976;51.510;7.522;2023-04-28T05:03:19;10.10;99.90
58638;DHT22;54976;51.510;7.522;2023-04-28T05:06:23;10.10;99.90
58638;DHT22;54976;51.510;7.522;2023-04-28T05:09:23;10.20;99.90
58638;DHT22;54976;51.510;7.522;2023-04-28T05:12:24;10.30;99.90
58638;DHT22;54976;51.510;7.522;2023-04-28T05:15:25;10.30;99.90
58638;DHT22;54976;51.510;7.522;2023-04-28T05:18:26;10.30;99.90
58638;DHT22;54976;51.510;7.522;2023-04-28T05:21:26;10.40;99.90
58638;DHT22;54976;51.510;7.522;2023-04-28T05:24:30;10.40;99.90
58638;DHT22;54976;51.510;7.522;2023-04-28T05:27:31;10.40;99.90
58638;DHT22;54976;51.510;7.522;2023-04-28T05:30:32;10.50;99.90
58638;DHT22;54976;51.510;7.522;2023-04-28T05:33:33;10.50;99.90
58638;DHT22;54976;51.510;7.522;2023-04-28T05:36:40;10.60;99.90
58638;DHT22;54976;51.510;7.522;2023-04-28T05:42:24;10.60;99.90
58638;DHT22;54976;51.510;7.522;2023-04-28T05:45:25;10.50;99.90
58638;DHT22;54976;51.510;7.522;2023-04-28T05:48:25;10.60;99.90
58638;DHT22;54976;51.510;7.522;2023-04-28T05:51:26;10.50;99.90
58638;DHT22;54976;51.510;7.522;2023-04-28T05:54:27;10.50;99.90
58638;DHT22;54976;51.510;7.522;2023-04-28T05:57:28;10.50;99.90
58638;DHT22;54976;51.510;7.522;2023-04-28T06:00:30;10.50;99.90
58638;DHT22;54976;51.510;7.522;2023-04-28T06:03:31;10.50;99.90
58638;DHT22;54976;51.510;7.522;2023-04-28T06:07:51;10.60;99.90
58638;DHT22;54976;51.510;7.522;2023-04-28T06:10:51;10.90;99.90
58638;DHT22;54976;51.510;7.522;2023-04-28T06:13:52;11.10;99.90
58638;DHT22;54976;51.510;7.522;2023-04-28T06:16:53;11.20;99.90
58638;DHT22;54976;51.510;7.522;2023-04-28T06:19:53;11.30;99.90
58638;DHT22;54976;51.510;7.522;2023-04-28T06:22:55;11.30;99.90
58638;DHT22;54976;51.510;7.522;2023-04-28T06:25:56;11.20;99.90
58638;DHT22;54976;51.510;7.522;2023-04-28T06:28:57;11.20;99.90
58638;DHT22;54976;51.510;7.522;2023-04-28T06:33:32;11.10;99.90
58638;DHT22;54976;51.510;7.522;2023-04-28T06:36:33;11.00;99.90
58638;DHT22;54976;51.510;7.522;2023-04-28T06:39:33;11.00;99.90
58638;DHT22;54976;51.510;7.522;2023-04-28T06:42:35;11.00;99.90
58638;DHT22;54976;51.510;7.522;2023-04-28T06:45:36;10.90;99.90
58638;DHT22;54976;51.510;7.522;2023-04-28T06:48:42;11.00;99.90
58638;DHT22;54976;51.510;7.522;2023-04-28T06:51:43;11.10;99.90
58638;DHT22;54976;51.510;7.522;2023-04-28T06:54:44;11.20;99.90
58638;DHT22;54976;51.510;7.522;2023-04-28T06:57:45;11.20;99.90
58638;DHT22;54976;51.510;7.522;2023-04-28T07:00:46;11.40;99.90
58638;DHT22;54976;51.510;7.522;2023-04-28T07:03:47;11.60;99.90
58638;DHT22;54976;51.510;7.522;2023-04-28T07:06:47;11.70;99.90
58638;DHT22;54976;51.510;7.522;2023-04-28T07:09:48;12.10;99.90
58638;DHT22;54976;51.510;7.522;2023-04-28T07:12:49;12.30;99.90
58638;DHT22;54976;51.510;7.522;2023-04-28T07:15:51;12.60;99.90
58638;DHT22;54976;51.510;7.522;2023-04-28T07:18:52;12.70;99.90
58638;DHT22;54976;51.510;7.522;2023-04-28T07:21:52;12.90;99.90
58638;DHT22;54976;51.510;7.522;2023-04-28T07:24:53;12.90;99.90
58638;DHT22;54976;51.510;7.522;2023-04-28T07:27:54;12.90;99.90
58638;DHT22;54976;51.510;7.522;2023-04-28T07:30:54;13.00;99.90
58638;DHT22;54976;51.510;7.522;2023-04-28T07:33:55;13.00;99.90
58638;DHT22;54976;51.510;7.522;2023-04-28T07:36:56;13.10;99.90
58638;DHT22;54976;51.510;7.522;2023-04-28T07:39:57;13.20;99.90
58638;DHT22;54976;51.510;7.522;2023-04-28T07:42:58;13.50;99.50
58638;DHT22;54976;51.510;7.522;2023-04-28T07:45:59;13.50;98.70
58638;DHT22;54976;51.510;7.522;2023-04-28T07:48:59;13.60;99.60
58638;DHT22;54976;51.510;7.522;2023-04-28T07:52:00;13.80;98.80
58638;DHT22;54976;51.510;7.522;2023-04-28T07:55:01;13.80;98.20
58638;DHT22;54976;51.510;7.522;2023-04-28T07:58:02;13.90;99.50
58638;DHT22;54976;51.510;7.522;2023-04-28T08:01:03;14.10;98.60
58638;DHT22;54976;51.510;7.522;2023-04-28T08:04:03;14.30;99.90
58638;DHT22;54976;51.510;7.522;2023-04-28T08:07:04;14.50;97.80
58638;DHT22;54976;51.510;7.522;2023-04-28T08:10:05;14.70;98.60
58638;DHT22;54976;51.510;7.522;2023-04-28T08:13:06;15.10;97.80
58638;DHT22;54976;51.510;7.522;2023-04-28T08:16:07;15.40;95.50
58638;DHT22;54976;51.510;7.522;2023-04-28T08:19:08;15.80;95.40
58638;DHT22;54976;51.510;7.522;2023-04-28T08:22:08;16.00;94.30
58638;DHT22;54976;51.510;7.522;2023-04-28T08:25:09;16.20;95.30
58638;DHT22;54976;51.510;7.522;2023-04-28T08:28:10;16.60;94.10
58638;DHT22;54976;51.510;7.522;2023-04-28T08:31:10;16.80;92.80
58638;DHT22;54976;51.510;7.522;2023-04-28T08:34:11;16.70;92.10
58638;DHT22;54976;51.510;7.522;2023-04-28T08:37:12;16.80;92.20
58638;DHT22;54976;51.510;7.522;2023-04-28T08:40:12;17.00;93.40
58638;DHT22;54976;51.510;7.522;2023-04-28T08:43:13;17.20;92.80
58638;DHT22;54976;51.510;7.522;2023-04-28T08:46:15;17.40;92.30
58638;DHT22;54976;51.510;7.522;2023-04-28T08:49:17;17.40;91.90
58638;DHT22;54976;51.510;7.522;2023-04-28T08:52:19;17.80;88.10
58638;DHT22;54976;51.510;7.522;2023-04-28T08:55:20;17.40;90.60
58638;DHT22;54976;51.510;7.522;2023-04-28T08:58:23;17.30;90.00
58638;DHT22;54976;51.510;7.522;2023-04-28T09:01:24;17.40;90.90
58638;DHT22;54976;51.510;7.522;2023-04-28T09:04:24;17.60;91.00
58638;DHT22;54976;51.510;7.522;2023-04-28T09:07:25;17.60;88.60
58638;DHT22;54976;51.510;7.522;2023-04-28T09:10:26;17.80;90.20
58638;DHT22;54976;51.510;7.522;2023-04-28T09:13:26;18.10;86.70
58638;DHT22;54976;51.510;7.522;2023-04-28T09:16:39;17.90;87.70
58638;DHT22;54976;51.510;7.522;2023-04-28T09:19:41;18.00;86.70
58638;DHT22;54976;51.510;7.522;2023-04-28T09:22:44;18.20;88.20
58638;DHT22;54976;51.510;7.522;2023-04-28T09:25:55;18.30;87.10
58638;DHT22;54976;51.510;7.522;2023-04-28T09:29:11;18.50;81.00
58638;DHT22;54976;51.510;7.522;2023-04-28T09:32:20;18.50;82.70
58638;DHT22;54976;51.510;7.522;2023-04-28T09:35:41;18.30;81.70
58638;DHT22;54976;51.510;7.522;2023-04-28T09:38:43;18.10;82.10
58638;DHT22;54976;51.510;7.522;2023-04-28T09:41:44;18.40;86.20
58638;DHT22;54976;51.510;7.522;2023-04-28T09:44:52;19.00;85.50
58638;DHT22;54976;51.510;7.522;2023-04-28T09:48:08;19.50;79.30
58638;DHT22;54976;51.510;7.522;2023-04-28T09:51:10;19.60;76.50
58638;DHT22;54976;51.510;7.522;2023-04-28T09:54:11;19.30;78.10
58638;DHT22;54976;51.510;7.522;2023-04-28T09:57:13;19.10;78.70
58638;DHT22;54976;51.510;7.522;2023-04-28T10:00:16;18.70;79.90
58638;DHT22;54976;51.510;7.522;2023-04-28T10:03:17;18.40;81.40
58638;DHT22;54976;51.510;7.522;2023-04-28T10:06:19;18.00;83.30
58638;DHT22;54976;51.510;7.522;2023-04-28T10:09:20;17.80;84.00
58638;DHT22;54976;51.510;7.522;2023-04-28T10:12:26;17.60;88.10
58638;DHT22;54976;51.510;7.522;2023-04-28T10:15:27;17.60;89.40
58638;DHT22;54976;51.510;7.522;2023-04-28T10:18:28;17.60;88.80
58638;DHT22;54976;51.510;7.522;2023-04-28T10:21:33;17.30;89.40
58638;DHT22;54976;51.510;7.522;2023-04-28T10:25:02;17.10;90.90
58638;DHT22;54976;51.510;7.522;2023-04-28T10:28:08;17.00;92.10
58638;DHT22;54976;51.510;7.522;2023-04-28T10:31:13;17.40;92.40
58638;DHT22;54976;51.510;7.522;2023-04-28T10:34:21;17.70;91.10
58638;DHT22;54976;51.510;7.522;2023-04-28T10:38:02;18.10;90.90
58638;DHT22;54976;51.510;7.522;2023-04-28T10:41:03;18.80;87.60
58638;DHT22;54976;51.510;7.522;2023-04-28T10:47:59;20.00;75.20
58638;DHT22;54976;51.510;7.522;2023-04-28T10:54:07;19.60;79.40
58638;DHT22;54976;51.510;7.522;2023-04-28T10:57:17;19.30;79.30
58638;DHT22;54976;51.510;7.522;2023-04-28T11:00:28;19.40;77.60
58638;DHT22;54976;51.510;7.522;2023-04-28T11:06:43;19.00;78.30
58638;DHT22;54976;51.510;7.522;2023-04-28T11:09:46;18.60;83.60
58638;DHT22;54976;51.510;7.522;2023-04-28T11:13:26;18.30;85.80
58638;DHT22;54976;51.510;7.522;2023-04-28T11:16:27;18.00;88.00
58638;DHT22;54976;51.510;7.522;2023-04-28T11:19:35;17.80;89.80
58638;DHT22;54976;51.510;7.522;2023-04-28T11:22:36;17.70;90.30
58638;DHT22;54976;51.510;7.522;2023-04-28T11:25:55;17.90;90.90
58638;DHT22;54976;51.510;7.522;2023-04-28T11:28:57;18.00;89.60
58638;DHT22;54976;51.510;7.522;2023-04-28T11:31:58;17.80;90.70
58638;DHT22;54976;51.510;7.522;2023-04-28T11:34:59;17.50;91.30
58638;DHT22;54976;51.510;7.522;2023-04-28T11:38:02;17.30;92.10
58638;DHT22;54976;51.510;7.522;2023-04-28T11:41:06;17.30;93.20
58638;DHT22;54976;51.510;7.522;2023-04-28T11:44:17;17.30;93.10
58638;DHT22;54976;51.510;7.522;2023-04-28T11:47:33;17.40;93.40
58638;DHT22;54976;51.510;7.522;2023-04-28T11:50:37;17.30;95.20
58638;DHT22;54976;51.510;7.522;2023-04-28T11:53:44;17.20;96.50
58638;DHT22;54976;51.510;7.522;2023-04-28T11:56:45;17.10;96.90
58638;DHT22;54976;51.510;7.522;2023-04-28T11:59:46;17.10;97.80
58638;DHT22;54976;51.510;7.522;2023-04-28T12:02:46;17.40;98.40
58638;DHT22;54976;51.510;7.522;2023-04-28T12:05:47;17.40;98.20
58638;DHT22;54976;51.510;7.522;2023-04-28T12:08:48;17.20;98.50
58638;DHT22;54976;51.510;7.522;2023-04-28T12:11:57;17.10;98.00
58638;DHT22;54976;51.510;7.522;2023-04-28T12:15:00;17.50;98.00
58638;DHT22;54976;51.510;7.522;2023-04-28T12:18:08;17.80;97.50
58638;DHT22;54976;51.510;7.522;2023-04-28T12:21:20;17.80;97.00
58638;DHT22;54976;51.510;7.522;2023-04-28T12:24:20;17.80;96.20
58638;DHT22;54976;51.510;7.522;2023-04-28T12:27:21;17.60;96.70
58638;DHT22;54976;51.510;7.522;2023-04-28T12:30:28;17.40;97.50
58638;DHT22;54976;51.510;7.522;2023-04-28T12:33:29;17.40;97.00
58638;DHT22;54976;51.510;7.522;2023-04-28T12:36:30;17.30;97.10
58638;DHT22;54976;51.510;7.522;2023-04-28T12:39:34;17.10;97.50
58638;DHT22;54976;51.510;7.522;2023-04-28T12:42:36;17.10;98.20
58638;DHT22;54976;51.510;7.522;2023-04-28T12:45:36;17.20;97.40
58638;DHT22;54976;51.510;7.522;2023-04-28T12:48:37;17.60;97.40
58638;DHT22;54976;51.510;7.522;2023-04-28T12:51:37;17.90;96.30
58638;DHT22;54976;51.510;7.522;2023-04-28T12:54:39;18.20;95.70
58638;DHT22;54976;51.510;7.522;2023-04-28T12:57:46;18.70;94.80
58638;DHT22;54976;51.510;7.522;2023-04-28T13:00:47;19.10;93.80
58638;DHT22;54976;51.510;7.522;2023-04-28T13:03:50;18.90;93.10
58638;DHT22;54976;51.510;7.522;2023-04-28T13:06:52;18.60;94.00
58638;DHT22;54976;51.510;7.522;2023-04-28T13:09:54;18.50;93.70
58638;DHT22;54976;51.510;7.522;2023-04-28T13:12:55;18.40;94.20
58638;DHT22;54976;51.510;7.522;2023-04-28T13:15:56;18.30;94.00
58638;DHT22;54976;51.510;7.522;2023-04-28T13:18:56;18.50;94.10
58638;DHT22;54976;51.510;7.522;2023-04-28T13:21:57;18.30;94.90
58638;DHT22;54976;51.510;7.522;2023-04-28T13:24:58;18.50;94.50
58638;DHT22;54976;51.510;7.522;2023-04-28T13:27:59;18.70;93.60
58638;DHT22;54976;51.510;7.522;2023-04-28T13:30:59;18.90;92.80
58638;DHT22;54976;51.510;7.522;2023-04-28T13:34:00;19.90;91.10
58638;DHT22;54976;51.510;7.522;2023-04-28T13:37:01;21.10;83.80
58638;DHT22;54976;51.510;7.522;2023-04-28T13:40:02;20.90;82.80
58638;DHT22;54976;51.510;7.522;2023-04-28T13:43:03;21.00;85.10
58638;DHT22;54976;51.510;7.522;2023-04-28T13:46:04;20.90;80.10
58638;DHT22;54976;51.510;7.522;2023-04-28T13:49:11;21.10;82.30
58638;DHT22;54976;51.510;7.522;2023-04-28T13:52:11;21.10;78.10
58638;DHT22;54976;51.510;7.522;2023-04-28T13:55:13;21.20;77.80
58638;DHT22;54976;51.510;7.522;2023-04-28T13:58:13;21.70;75.70
58638;DHT22;54976;51.510;7.522;2023-04-28T14:01:14;22.00;75.60
58638;DHT22;54976;51.510;7.522;2023-04-28T14:04:15;23.00;68.50
58638;DHT22;54976;51.510;7.522;2023-04-28T14:07:16;22.90;66.50
58638;DHT22;54976;51.510;7.522;2023-04-28T14:10:16;22.80;64.80
58638;DHT22;54976;51.510;7.522;2023-04-28T14:13:18;22.60;63.70
58638;DHT22;54976;51.510;7.522;2023-04-28T14:16:18;21.90;63.70
58638;DHT22;54976;51.510;7.522;2023-04-28T14:19:19;22.20;67.50
58638;DHT22;54976;51.510;7.522;2023-04-28T14:22:20;23.10;59.90
58638;DHT22;54976;51.510;7.522;2023-04-28T14:25:21;22.40;61.00
58638;DHT22;54976;51.510;7.522;2023-04-28T14:28:21;21.60;63.90
58638;DHT22;54976;51.510;7.522;2023-04-28T14:31:22;21.00;67.90
58638;DHT22;54976;51.510;7.522;2023-04-28T14:34:23;20.30;71.40
58638;DHT22;54976;51.510;7.522;2023-04-28T14:37:23;20.00;75.00
58638;DHT22;54976;51.510;7.522;2023-04-28T14:40:25;19.70;76.00
58638;DHT22;54976;51.510;7.522;2023-04-28T14:43:26;19.70;78.50
58638;DHT22;54976;51.510;7.522;2023-04-28T14:46:26;19.50;80.00
58638;DHT22;54976;51.510;7.522;2023-04-28T14:49:27;19.50;79.80
58638;DHT22;54976;51.510;7.522;2023-04-28T14:52:28;19.40;81.80
58638;DHT22;54976;51.510;7.522;2023-04-28T14:55:29;19.70;82.80
58638;DHT22;54976;51.510;7.522;2023-04-28T14:58:30;20.00;81.90
58638;DHT22;54976;51.510;7.522;2023-04-28T15:01:30;20.40;80.00
58638;DHT22;54976;51.510;7.522;2023-04-28T15:04:31;20.90;75.60
58638;DHT22;54976;51.510;7.522;2023-04-28T15:07:32;21.80;72.30
58638;DHT22;54976;51.510;7.522;2023-04-28T15:10:37;22.20;68.50
58638;DHT22;54976;51.510;7.522;2023-04-28T15:13:38;22.00;67.30
58638;DHT22;54976;51.510;7.522;2023-04-28T15:16:39;21.70;66.90
58638;DHT22;54976;51.510;7.522;2023-04-28T15:19:40;21.50;67.10
58638;DHT22;54976;51.510;7.522;2023-04-28T15:22:40;21.10;68.00
58638;DHT22;54976;51.510;7.522;2023-04-28T15:25:43;20.60;71.00
58638;DHT22;54976;51.510;7.522;2023-04-28T15:28:44;20.20;73.00
58638;DHT22;54976;51.510;7.522;2023-04-28T15:31:45;19.80;74.50
58638;DHT22;54976;51.510;7.522;2023-04-28T15:34:46;19.50;77.40
58638;DHT22;54976;51.510;7.522;2023-04-28T15:37:47;19.70;77.50
58638;DHT22;54976;51.510;7.522;2023-04-28T15:40:51;19.80;78.80
58638;DHT22;54976;51.510;7.522;2023-04-28T15:43:51;19.90;78.30
58638;DHT22;54976;51.510;7.522;2023-04-28T15:46:52;19.70;79.90
58638;DHT22;54976;51.510;7.522;2023-04-28T15:49:52;19.50;81.60
58638;DHT22;54976;51.510;7.522;2023-04-28T15:52:53;19.40;82.70
58638;DHT22;54976;51.510;7.522;2023-04-28T15:55:53;19.20;84.90
58638;DHT22;54976;51.510;7.522;2023-04-28T15:58:54;19.00;85.40
58638;DHT22;54976;51.510;7.522;2023-04-28T16:01:55;19.10;86.30
58638;DHT22;54976;51.510;7.522;2023-04-28T16:04:56;19.00;86.60
58638;DHT22;54976;51.510;7.522;2023-04-28T16:07:57;18.90;86.70
58638;DHT22;54976;51.510;7.522;2023-04-28T16:10:58;18.80;88.20
58638;DHT22;54976;51.510;7.522;2023-04-28T16:13:58;18.80;86.50
58638;DHT22;54976;51.510;7.522;2023-04-28T16:16:59;18.50;88.20
58638;DHT22;54976;51.510;7.522;2023-04-28T16:20:00;18.40;89.00
58638;DHT22;54976;51.510;7.522;2023-04-28T16:23:03;18.20;90.10
58638;DHT22;54976;51.510;7.522;2023-04-28T16:26:04;18.10;90.10
58638;DHT22;54976;51.510;7.522;2023-04-28T16:29:05;17.80;90.60
58638;DHT22;54976;51.510;7.522;2023-04-28T16:32:06;17.50;91.40
58638;DHT22;54976;51.510;7.522;2023-04-28T16:35:07;17.40;92.10
58638;DHT22;54976;51.510;7.522;2023-04-28T16:38:12;17.10;92.50
58638;DHT22;54976;51.510;7.522;2023-04-28T16:41:13;16.90;92.10
58638;DHT22;54976;51.510;7.522;2023-04-28T16:44:14;16.80;92.50
58638;DHT22;54976;51.510;7.522;2023-04-28T16:47:15;16.70;92.80
58638;DHT22;54976;51.510;7.522;2023-04-28T16:50:15;16.70;92.80
58638;DHT22;54976;51.510;7.522;2023-04-28T16:53:17;16.90;92.40
58638;DHT22;54976;51.510;7.522;2023-04-28T16:56:18;17.10;91.30
58638;DHT22;54976;51.510;7.522;2023-04-28T16:59:18;17.30;90.60
58638;DHT22;54976;51.510;7.522;2023-04-28T17:02:19;17.30;89.00
58638;DHT22;54976;51.510;7.522;2023-04-28T17:05:20;17.20;89.10
58638;DHT22;54976;51.510;7.522;2023-04-28T17:08:20;17.00;89.70
58638;DHT22;54976;51.510;7.522;2023-04-28T17:11:21;16.90;90.10
58638;DHT22;54976;51.510;7.522;2023-04-28T17:14:22;16.80;90.50
58638;DHT22;54976;51.510;7.522;2023-04-28T17:17:22;16.80;90.50
58638;DHT22;54976;51.510;7.522;2023-04-28T17:20:23;16.90;90.10
58638;DHT22;54976;51.510;7.522;2023-04-28T17:23:24;16.90;89.80
58638;DHT22;54976;51.510;7.522;2023-04-28T17:26:28;16.70;89.90
58638;DHT22;54976;51.510;7.522;2023-04-28T17:29:29;16.70;90.30
58638;DHT22;54976;51.510;7.522;2023-04-28T17:32:30;16.60;90.60
58638;DHT22;54976;51.510;7.522;2023-04-28T17:35:32;16.50;91.10
58638;DHT22;54976;51.510;7.522;2023-04-28T17:38:34;16.60;91.00
58638;DHT22;54976;51.510;7.522;2023-04-28T17:41:35;16.60;91.00
58638;DHT22;54976;51.510;7.522;2023-04-28T17:44:36;16.50;90.70
58638;DHT22;54976;51.510;7.522;2023-04-28T17:47:36;16.50;90.80
58638;DHT22;54976;51.510;7.522;2023-04-28T17:50:37;16.40;91.40
58638;DHT22;54976;51.510;7.522;2023-04-28T17:53:38;16.40;92.10
58638;DHT22;54976;51.510;7.522;2023-04-28T17:56:39;16.20;92.30
58638;DHT22;54976;51.510;7.522;2023-04-28T17:59:40;16.10;93.00
58638;DHT22;54976;51.510;7.522;2023-04-28T18:02:41;16.00;94.50
58638;DHT22;54976;51.510;7.522;2023-04-28T18:05:42;15.80;95.90
58638;DHT22;54976;51.510;7.522;2023-04-28T18:08:43;15.70;97.10
58638;DHT22;54976;51.510;7.522;2023-04-28T18:11:43;15.50;98.20
58638;DHT22;54976;51.510;7.522;2023-04-28T18:14:44;15.50;98.30
58638;DHT22;54976;51.510;7.522;2023-04-28T18:17:44;15.50;98.80
58638;DHT22;54976;51.510;7.522;2023-04-28T18:20:46;15.40;98.80
58638;DHT22;54976;51.510;7.522;2023-04-28T18:23:46;15.40;98.20
58638;DHT22;54976;51.510;7.522;2023-04-28T18:26:47;15.30;98.70
58638;DHT22;54976;51.510;7.522;2023-04-28T18:29:48;15.20;98.50
58638;DHT22;54976;51.510;7.522;2023-04-28T18:32:48;15.20;98.90
58638;DHT22;54976;51.510;7.522;2023-04-28T18:36:00;15.10;99.00
58638;DHT22;54976;51.510;7.522;2023-04-28T18:39:01;15.10;99.40
58638;DHT22;54976;51.510;7.522;2023-04-28T18:42:02;15.00;99.90
58638;DHT22;54976;51.510;7.522;2023-04-28T18:45:04;15.00;99.90
58638;DHT22;54976;51.510;7.522;2023-04-28T18:48:05;14.90;99.90
58638;DHT22;54976;51.510;7.522;2023-04-28T18:51:06;14.90;99.90
58638;DHT22;54976;51.510;7.522;2023-04-28T18:54:07;14.90;99.90
58638;DHT22;54976;51.510;7.522;2023-04-28T18:57:08;14.90;99.90
58638;DHT22;54976;51.510;7.522;2023-04-28T19:00:09;14.90;99.90
58638;DHT22;54976;51.510;7.522;2023-04-28T19:03:11;14.80;99.90
58638;DHT22;54976;51.510;7.522;2023-04-28T19:06:13;14.80;99.90
58638;DHT22;54976;51.510;7.522;2023-04-28T19:09:14;14.80;99.90
58638;DHT22;54976;51.510;7.522;2023-04-28T19:12:14;14.70;99.90
58638;DHT22;54976;51.510;7.522;2023-04-28T19:15:15;14.60;99.90
58638;DHT22;54976;51.510;7.522;2023-04-28T19:18:16;14.40;99.90
58638;DHT22;54976;51.510;7.522;2023-04-28T19:21:17;14.30;99.90
58638;DHT22;54976;51.510;7.522;2023-04-28T19:24:18;14.30;99.90
58638;DHT22;54976;51.510;7.522;2023-04-28T19:27:18;14.20;99.90